Time;durP1;ratioP1;P1;durP2;ratioP2;P2;SDS_P1;SDS_P2;PMS_P1;PMS_P2;Temp;Humidity;BMP_temperature;BMP_pressure;BME280_temperature;BME280_humidity;BME280_pressure;Samples;Min_cycle;Max_cycle;Signal;HPM_P1;HPM_P2
2023/05/25 00:02:25;;;;;;;14.45;5.82;;;9.00;99.90;;;;;;4877755;29;20424;-84
2023/05/25 00:04:51;;;;;;;16.00;5.45;;;9.50;99.90;;;;;;4878374;29;20125;-84
2023/05/25 00:07:17;;;;;;;16.42;5.38;;;9.20;99.90;;;;;;4879096;29;20493;-84
2023/05/25 00:09:44;;;;;;;17.25;6.03;;;9.10;99.90;;;;;;4879787;29;20049;-83
2023/05/25 00:12:13;;;;;;;14.13;5.80;;;7.60;99.90;;;;;;4877604;29;20057;-84
2023/05/25 00:14:39;;;;;;;17.48;6.03;;;9.30;99.90;;;;;;4879727;29;20052;-83
2023/05/25 00:17:04;;;;;;;16.67;6.20;;;8.80;99.90;;;;;;4879271;29;20044;-84
2023/05/25 00:19:36;;;;;;;15.15;5.93;;;8.70;99.90;;;;;;4878225;29;20041;-84
2023/05/25 00:22:02;;;;;;;17.23;6.18;;;8.80;99.90;;;;;;4879192;29;20052;-84
2023/05/25 00:24:35;;;;;;;14.43;5.95;;;8.10;99.90;;;;;;4896322;29;20390;-84
2023/05/25 00:27:02;;;;;;;15.02;5.68;;;8.60;99.90;;;;;;4896049;29;20061;-84
2023/05/25 00:29:28;;;;;;;18.73;6.40;;;9.20;99.90;;;;;;4897306;29;20044;-84
2023/05/25 00:32:03;;;;;;;15.98;6.60;;;8.30;99.90;;;;;;4895934;29;20048;-83
2023/05/25 00:34:29;;;;;;;18.67;6.38;;;8.10;99.90;;;;;;4897015;29;20052;-84
2023/05/25 00:36:55;;;;;;;17.98;6.35;;;9.00;99.90;;;;;;4896796;29;20103;-84
2023/05/25 00:39:20;;;;;;;18.90;6.97;;;8.80;99.90;;;;;;4897390;29;20080;-84
2023/05/25 00:41:56;;;;;;;16.52;6.72;;;9.10;99.90;;;;;;4896092;29;20091;-84
2023/05/25 00:44:31;;;;;;;19.95;6.28;;;8.20;99.90;;;;;;4897324;29;20059;-84
2023/05/25 00:46:56;;;;;;;18.17;6.50;;;9.00;99.90;;;;;;4896665;29;20053;-84
2023/05/25 00:49:32;;;;;;;20.15;6.60;;;8.10;99.90;;;;;;4896112;29;20056;-84
2023/05/25 00:51:57;;;;;;;22.85;6.88;;;9.30;99.90;;;;;;4896312;29;20068;-84
2023/05/25 00:54:23;;;;;;;23.35;7.20;;;8.60;99.90;;;;;;4896208;29;20393;-83
2023/05/25 00:57:11;;;;;;;19.40;7.00;;;8.00;99.90;;;;;;4896063;29;20540;-84
2023/05/25 00:59:59;;;;;;;18.10;7.10;;;8.00;99.90;;;;;;4896419;29;20053;-84
2023/05/25 01:02:32;;;;;;;19.30;7.55;;;9.00;99.90;;;;;;4896275;29;20404;-84
2023/05/25 01:05:01;;;;;;;16.30;7.33;;;9.10;99.90;;;;;;4896077;29;20454;-84
2023/05/25 01:07:30;;;;;;;17.75;6.90;;;8.50;99.90;;;;;;4895617;29;20816;-83
2023/05/25 01:09:58;;;;;;;19.80;6.90;;;7.80;99.90;;;;;;4897370;29;20048;-83
2023/05/25 01:12:30;;;;;;;17.80;6.88;;;7.90;99.90;;;;;;4912372;29;20131;-84
2023/05/25 01:14:57;;;;;;;15.95;6.35;;;8.00;99.90;;;;;;4914145;29;20111;-84
2023/05/25 01:17:37;;;;;;;18.65;7.18;;;8.90;99.90;;;;;;4915491;29;20044;-84
2023/05/25 01:20:15;;;;;;;20.23;7.13;;;7.50;99.90;;;;;;4916253;29;20055;-83
2023/05/25 01:22:56;;;;;;;18.52;6.75;;;7.80;99.90;;;;;;4913937;29;20044;-84
2023/05/25 01:25:27;;;;;;;18.95;7.15;;;7.90;99.90;;;;;;4914449;29;20060;-84
2023/05/25 01:28:06;;;;;;;16.92;6.72;;;9.10;99.90;;;;;;4916020;29;20059;-84
2023/05/25 01:30:33;;;;;;;16.13;6.85;;;7.90;99.90;;;;;;4915310;29;20087;-84
2023/05/25 01:33:00;;;;;;;20.40;7.32;;;8.90;99.90;;;;;;4916079;29;20056;-84
2023/05/25 01:35:26;;;;;;;19.77;7.07;;;8.50;99.90;;;;;;4915860;29;20123;-84
2023/05/25 01:37:58;;;;;;;20.55;7.63;;;7.80;99.90;;;;;;4918191;29;20048;-84
2023/05/25 01:40:29;;;;;;;19.67;6.97;;;7.90;99.90;;;;;;4919197;29;20564;-83
2023/05/25 01:42:54;;;;;;;15.57;6.47;;;7.90;99.90;;;;;;4917602;29;20130;-84
2023/05/25 01:45:21;;;;;;;18.75;6.55;;;8.00;99.90;;;;;;4919305;29;20127;-83
2023/05/25 01:48:21;;;;;;;22.48;6.78;;;7.70;99.90;;;;;;4917601;29;20052;-84
2023/05/25 01:51:00;;;;;;;20.30;6.18;;;7.40;99.90;;;;;;4917740;29;20107;-84
2023/05/25 01:53:42;;;;;;;19.88;7.30;;;7.70;99.90;;;;;;4919227;29;20044;-84
2023/05/25 01:56:13;;;;;;;21.48;7.32;;;7.60;99.90;;;;;;4917992;29;20054;-84
2023/05/25 01:58:56;;;;;;;19.05;6.95;;;8.70;99.90;;;;;;4917147;29;20048;-84
2023/05/25 02:01:32;;;;;;;15.93;5.95;;;7.40;99.90;;;;;;4906971;29;20048;-84
2023/05/25 02:04:07;;;;;;;18.92;7.00;;;7.50;99.90;;;;;;4898620;29;20092;-84
2023/05/25 02:06:35;;;;;;;17.70;6.93;;;7.30;99.90;;;;;;4898947;29;20056;-84
2023/05/25 02:09:01;;;;;;;20.92;6.25;;;7.50;99.90;;;;;;4899062;29;20048;-83
2023/05/25 02:11:27;;;;;;;18.15;6.90;;;7.60;99.90;;;;;;4897774;29;20465;-83
2023/05/25 02:13:52;;;;;;;18.67;6.90;;;8.00;99.90;;;;;;4900417;29;20047;-83
2023/05/25 02:16:30;;;;;;;18.10;6.30;;;8.30;99.90;;;;;;4899285;29;20051;-84
2023/05/25 02:19:04;;;;;;;16.33;6.70;;;7.30;99.90;;;;;;4898147;29;20050;-83
2023/05/25 02:21:35;;;;;;;;;;;7.00;99.90;;;;;;4900990;29;20132;-84
2023/05/25 02:24:01;;;;;;;17.00;6.47;;;7.10;99.90;;;;;;4916514;29;20084;-83
2023/05/25 02:26:26;;;;;;;17.42;7.05;;;7.50;99.90;;;;;;4917757;29;20092;-83
2023/05/25 02:28:52;;;;;;;16.88;6.90;;;8.10;99.90;;;;;;4901547;29;20049;-83
2023/05/25 02:31:18;;;;;;;15.85;6.47;;;7.90;99.90;;;;;;4900008;29;20456;-83
2023/05/25 02:33:46;;;;;;;18.75;7.07;;;7.50;99.90;;;;;;4899503;29;20037;-84
2023/05/25 02:36:12;;;;;;;22.15;7.10;;;7.00;99.90;;;;;;4899859;29;20116;-84
2023/05/25 02:38:37;;;;;;;16.58;6.55;;;6.90;99.90;;;;;;4898560;29;20541;-83
2023/05/25 02:41:03;;;;;;;17.20;6.55;;;7.80;99.90;;;;;;4896524;29;20056;-83
2023/05/25 02:43:29;;;;;;;16.17;6.20;;;8.00;99.90;;;;;;4898156;29;20048;-83
2023/05/25 02:46:01;;;;;;;17.73;6.97;;;7.40;99.90;;;;;;4899612;29;20045;-83
2023/05/25 02:48:26;;;;;;;15.30;6.53;;;7.40;99.90;;;;;;4898841;29;20112;-84
2023/05/25 02:50:55;;;;;;;15.63;6.43;;;6.30;99.90;;;;;;4899773;29;20413;-83
2023/05/25 02:53:21;;;;;;;18.40;6.88;;;6.70;99.90;;;;;;4898669;29;20127;-83
2023/05/25 02:55:51;;;;;;;18.63;6.68;;;7.30;99.90;;;;;;4898600;29;20595;-84
2023/05/25 02:58:17;;;;;;;16.98;6.60;;;7.60;99.90;;;;;;4898294;29;20049;-84
2023/05/25 03:00:43;;;;;;;15.77;6.82;;;7.20;99.90;;;;;;4897101;29;20052;-83
2023/05/25 03:03:25;;;;;;;17.95;6.72;;;7.30;99.90;;;;;;4898211;29;20056;-84
2023/05/25 03:06:04;;;;;;;19.98;6.45;;;8.00;99.90;;;;;;4899261;29;20051;-83
2023/05/25 03:08:30;;;;;;;16.42;6.82;;;7.30;99.90;;;;;;4898573;29;20093;-83
2023/05/25 03:10:56;;;;;;;17.63;7.07;;;6.50;99.90;;;;;;4898102;29;20044;-83
2023/05/25 03:13:21;;;;;;;22.08;7.18;;;7.90;99.90;;;;;;4898271;29;20135;-83
2023/05/25 03:16:05;;;;;;;15.60;6.32;;;7.40;99.90;;;;;;4897726;29;20397;-83
2023/05/25 03:18:33;;;;;;;16.48;6.05;;;6.50;99.90;;;;;;4899005;29;20128;-83
2023/05/25 03:20:59;;;;;;;19.20;6.95;;;6.50;99.90;;;;;;4899327;29;20056;-84
2023/05/25 03:23:24;;;;;;;17.33;6.57;;;7.10;99.90;;;;;;4897953;29;20048;-83
2023/05/25 03:26:08;;;;;;;19.88;6.25;;;7.10;99.90;;;;;;4898885;29;20374;-83
2023/05/25 03:32:02;;;;;;;16.88;6.88;;;6.10;99.90;;;;;;4897121;29;20057;-83
2023/05/25 03:34:28;;;;;;;18.30;6.05;;;6.70;99.90;;;;;;4897291;29;20063;-83
2023/05/25 03:36:54;;;;;;;17.63;6.55;;;6.30;99.90;;;;;;4898094;29;20040;-83
2023/05/25 03:39:21;;;;;;;17.95;6.30;;;5.90;99.90;;;;;;4897120;29;20048;-83
2023/05/25 03:42:11;;;;;;;24.10;7.70;;;6.40;99.90;;;;;;4896326;29;20045;-84
2023/05/25 03:44:37;;;;;;;18.52;7.10;;;6.40;99.90;;;;;;4898111;29;20092;-84
2023/05/25 03:47:03;;;;;;;16.77;6.88;;;7.20;99.90;;;;;;4897002;29;20087;-83
2023/05/25 03:49:28;;;;;;;14.88;6.28;;;6.50;99.90;;;;;;4897314;29;20100;-83
2023/05/25 03:52:00;;;;;;;19.13;6.50;;;6.50;99.90;;;;;;4896746;29;20131;-83
2023/05/25 03:54:26;;;;;;;15.93;6.57;;;7.20;99.90;;;;;;4898342;29;20131;-83
2023/05/25 03:57:02;;;;;;;20.27;6.87;;;7.10;99.90;;;;;;4896655;29;20048;-83
2023/05/25 03:59:34;;;;;;;19.25;6.78;;;6.60;99.90;;;;;;4897079;29;20131;-83
2023/05/25 04:02:00;;;;;;;21.20;7.30;;;6.80;99.90;;;;;;4897265;29;20048;-83
2023/05/25 04:04:27;;;;;;;21.38;7.53;;;7.10;99.90;;;;;;4896031;29;20055;-83
2023/05/25 04:07:07;;;;;;;25.00;8.50;;;7.20;99.90;;;;;;4896055;29;20049;-83
2023/05/25 04:09:39;;;;;;;21.23;8.23;;;6.80;99.90;;;;;;4912724;29;20056;-85
2023/05/25 04:12:17;;;;;;;19.63;7.35;;;6.30;99.90;;;;;;4896013;29;20573;-83
2023/05/25 04:14:43;;;;;;;19.05;8.05;;;8.00;99.90;;;;;;4896734;29;20049;-83
2023/05/25 04:17:08;;;;;;;19.58;7.93;;;7.60;99.90;;;;;;4896644;29;20040;-83
2023/05/25 04:19:34;;;;;;;20.77;8.25;;;7.40;99.90;;;;;;4897266;29;20540;-83
2023/05/25 04:22:00;;;;;;;16.42;7.45;;;7.60;99.90;;;;;;4896908;29;20036;-83
2023/05/25 04:24:26;;;;;;;17.38;7.32;;;8.20;99.90;;;;;;4896896;29;20049;-83
2023/05/25 04:26:55;;;;;;;21.63;7.60;;;7.50;99.90;;;;;;4897602;29;20501;-83
2023/05/25 04:29:30;;;;;;;19.17;7.70;;;7.90;99.90;;;;;;4897366;29;20623;-83
2023/05/25 04:32:02;;;;;;;28.08;8.70;;;6.50;99.90;;;;;;4896865;29;20082;-83
2023/05/25 04:34:28;;;;;;;21.13;8.30;;;7.50;99.90;;;;;;4912394;29;20142;-83
2023/05/25 04:36:55;;;;;;;21.23;8.48;;;8.20;99.90;;;;;;4896604;29;20052;-84
2023/05/25 04:39:23;;;;;;;24.30;8.70;;;7.70;99.90;;;;;;4896483;29;20453;-83
2023/05/25 04:41:51;;;;;;;21.92;7.45;;;9.10;99.90;;;;;;4894122;29;20088;-83
2023/05/25 04:44:18;;;;;;;26.20;9.13;;;7.80;99.90;;;;;;4895936;29;20078;-83
2023/05/25 04:46:47;;;;;;;23.30;8.57;;;9.30;99.90;;;;;;4896769;29;20044;-83
2023/05/25 04:49:17;;;;;;;23.27;8.90;;;9.50;99.90;;;;;;4897594;29;20492;-83
2023/05/25 04:51:43;;;;;;;25.08;8.70;;;8.60;99.90;;;;;;4897305;29;20438;-83
2023/05/25 04:54:09;;;;;;;20.58;8.48;;;9.00;99.90;;;;;;4896157;29;20052;-83
2023/05/25 04:56:34;;;;;;;21.27;9.30;;;9.80;99.90;;;;;;4897715;29;20052;-83
2023/05/25 04:59:18;;;;;;;23.08;8.52;;;9.80;99.90;;;;;;4915133;29;20169;-83
2023/05/25 05:01:44;;;;;;;17.20;7.57;;;9.20;99.90;;;;;;4914702;29;20444;-83
2023/05/25 05:04:15;;;;;;;20.92;7.90;;;9.70;99.90;;;;;;4915147;29;20064;-84
2023/05/25 05:06:41;;;;;;;25.95;8.23;;;8.90;99.90;;;;;;4915836;29;20048;-84
2023/05/25 05:09:06;;;;;;;22.20;8.07;;;9.60;99.90;;;;;;4916105;29;20056;-83
2023/05/25 05:11:32;;;;;;;20.63;7.90;;;8.90;99.90;;;;;;4918411;29;20040;-83
2023/05/25 05:14:03;;;;;;;22.65;7.85;;;9.30;99.90;;;;;;4920304;29;20151;-83
2023/05/25 05:16:33;;;;;;;19.67;8.10;;;9.10;99.90;;;;;;4920699;29;20392;-84
2023/05/25 05:18:59;;;;;;;21.92;8.60;;;9.60;99.90;;;;;;4921528;29;20044;-83
2023/05/25 05:21:28;;;;;;;17.75;8.30;;;10.40;99.90;;;;;;4900419;29;20048;-83
2023/05/25 05:23:54;;;;;;;23.60;9.20;;;10.40;99.90;;;;;;4883728;29;20041;-84
2023/05/25 05:26:21;;;;;;;23.80;8.98;;;10.40;99.90;;;;;;4908224;29;20043;-83
2023/05/25 05:28:47;;;;;;;21.58;9.18;;;9.60;99.90;;;;;;4917045;29;20051;-84
2023/05/25 05:31:18;;;;;;;23.48;9.80;;;10.50;99.90;;;;;;4891467;29;20482;-83
2023/05/25 05:33:44;;;;;;;21.33;8.25;;;10.10;99.90;;;;;;4886227;29;20057;-84
2023/05/25 05:36:09;;;;;;;19.17;8.15;;;9.60;99.90;;;;;;4882639;29;20554;-84
2023/05/25 05:38:35;;;;;;;29.23;9.32;;;10.60;99.90;;;;;;4895662;29;20492;-84
2023/05/25 05:44:48;;;;;;;18.30;7.78;;;10.00;99.90;;;;;;4919513;29;20510;-86
2023/05/25 05:47:13;;;;;;;20.15;8.02;;;11.30;99.90;;;;;;4921645;29;20088;-86
2023/05/25 05:49:39;;;;;;;17.60;7.90;;;9.40;99.90;;;;;;4921545;29;20048;-80
2023/05/25 05:52:05;;;;;;;17.42;8.05;;;11.40;99.90;;;;;;4921888;29;20087;-80
2023/05/25 05:54:31;;;;;;;19.85;7.88;;;10.30;99.90;;;;;;4920904;29;20590;-80
2023/05/25 05:56:56;;;;;;;20.30;7.53;;;11.00;99.90;;;;;;4921277;29;20048;-80
2023/05/25 05:59:23;;;;;;;17.98;7.82;;;10.50;99.90;;;;;;4920545;29;20504;-81
2023/05/25 06:01:48;;;;;;;16.42;7.60;;;11.50;99.90;;;;;;4920204;29;20099;-81
2023/05/25 06:04:14;;;;;;;18.05;7.78;;;10.70;99.90;;;;;;4919901;29;20127;-80
2023/05/25 06:06:41;;;;;;;17.27;7.78;;;10.80;99.90;;;;;;4920621;29;20059;-80
2023/05/25 06:09:07;;;;;;;20.08;7.60;;;10.90;99.90;;;;;;4920663;29;20051;-80
2023/05/25 06:11:36;;;;;;;19.25;7.38;;;10.90;99.90;;;;;;4921364;29;20514;-80
2023/05/25 06:14:02;;;;;;;20.65;7.47;;;11.00;99.90;;;;;;4920844;29;20634;-80
2023/05/25 06:16:27;;;;;;;20.38;8.63;;;11.30;99.90;;;;;;4921425;29;20048;-81
2023/05/25 06:18:53;;;;;;;18.02;7.60;;;11.20;99.90;;;;;;4919895;29;20048;-80
2023/05/25 06:21:19;;;;;;;19.17;7.75;;;11.30;99.90;;;;;;4920357;29;20060;-80
2023/05/25 06:23:46;;;;;;;20.70;7.28;;;11.40;99.90;;;;;;4917397;29;20059;-80
2023/05/25 06:26:12;;;;;;;19.20;6.97;;;11.40;99.90;;;;;;4916576;29;20066;-80
2023/05/25 06:28:37;;;;;;;16.17;7.38;;;12.40;99.90;;;;;;4919190;29;20048;-80
2023/05/25 06:31:03;;;;;;;18.92;7.25;;;11.70;99.90;;;;;;4917974;29;20127;-80
2023/05/25 06:33:29;;;;;;;17.40;6.78;;;11.80;99.90;;;;;;4891463;29;20045;-80
2023/05/25 06:35:59;;;;;;;18.17;6.88;;;12.00;99.90;;;;;;4889590;29;20075;-80
2023/05/25 06:38:28;;;;;;;15.60;6.28;;;12.20;99.90;;;;;;4883516;29;20061;-79
2023/05/25 06:40:53;;;;;;;17.05;5.80;;;12.20;99.90;;;;;;4880677;29;20089;-80
2023/05/25 06:43:19;;;;;;;15.43;5.38;;;12.30;99.90;;;;;;4879733;29;20135;-80
2023/05/25 06:45:45;;;;;;;14.52;4.85;;;12.40;99.90;;;;;;4880217;29;20064;-81
2023/05/25 06:48:11;;;;;;;15.68;4.88;;;12.40;99.90;;;;;;4887785;29;20072;-81
2023/05/25 06:50:36;;;;;;;15.90;5.00;;;12.90;99.90;;;;;;4887090;29;20064;-81
2023/05/25 06:53:02;;;;;;;16.90;5.22;;;12.60;99.90;;;;;;4878805;29;20181;-81
2023/05/25 06:55:28;;;;;;;15.57;4.95;;;12.50;99.90;;;;;;4879424;29;20045;-81
2023/05/25 06:57:53;;;;;;;13.23;5.00;;;12.50;99.90;;;;;;4880606;29;20056;-81
2023/05/25 07:00:20;;;;;;;14.48;4.45;;;12.50;99.90;;;;;;4878863;29;20476;-81
2023/05/25 07:02:46;;;;;;;16.17;4.38;;;12.70;99.90;;;;;;4880813;29;20088;-81
2023/05/25 07:05:15;;;;;;;14.13;4.80;;;12.80;99.90;;;;;;4879235;29;20083;-81
2023/05/25 07:07:40;;;;;;;14.00;4.40;;;13.00;99.90;;;;;;4878359;29;20087;-81
2023/05/25 07:10:07;;;;;;;12.70;4.25;;;13.20;99.90;;;;;;4878683;29;20076;-81
2023/05/25 07:12:32;;;;;;;16.33;4.35;;;13.40;99.90;;;;;;4879023;29;20230;-80
2023/05/25 07:14:58;;;;;;;13.80;3.90;;;13.50;99.90;;;;;;4880003;29;20120;-82
2023/05/25 07:17:23;;;;;;;15.90;4.30;;;13.70;99.90;;;;;;4879911;29;20505;-81
2023/05/25 07:19:49;;;;;;;12.00;3.90;;;14.20;99.90;;;;;;4880359;29;20041;-81
2023/05/25 07:22:17;;;;;;;13.63;3.65;;;14.30;99.90;;;;;;4877562;29;20060;-84
2023/05/25 07:24:55;;;;;;;12.32;3.58;;;13.80;99.90;;;;;;4880221;29;20056;-84
2023/05/25 07:27:24;;;;;;;15.20;3.88;;;14.10;99.90;;;;;;4877560;29;20053;-81
2023/05/25 07:29:50;;;;;;;18.55;3.50;;;15.10;99.90;;;;;;4880031;29;20457;-80
2023/05/25 07:32:15;;;;;;;13.10;3.83;;;14.20;99.90;;;;;;4879745;29;20052;-81
2023/05/25 07:34:41;;;;;;;11.98;3.67;;;14.30;99.90;;;;;;4877929;29;20056;-80
2023/05/25 07:37:06;;;;;;;14.27;3.60;;;14.60;99.90;;;;;;4879660;29;20049;-81
2023/05/25 07:39:32;;;;;;;22.73;4.15;;;15.40;99.90;;;;;;4881701;29;20080;-81
2023/05/25 07:41:58;;;;;;;12.30;4.13;;;14.90;99.90;;;;;;4897494;29;20069;-80
2023/05/25 07:44:23;;;;;;;12.95;3.47;;;15.70;99.90;;;;;;4896840;29;20045;-80
2023/05/25 07:46:49;;;;;;;11.88;3.22;;;15.30;99.90;;;;;;4896952;29;20512;-83
2023/05/25 07:49:15;;;;;;;11.20;3.20;;;14.90;99.90;;;;;;4895200;29;20060;-81
2023/05/25 07:51:44;;;;;;;13.55;3.80;;;14.90;99.90;;;;;;4896012;29;20399;-80
2023/05/25 07:54:10;;;;;;;13.73;3.58;;;15.30;99.90;;;;;;4890942;29;20052;-80
2023/05/25 07:56:36;;;;;;;11.70;3.35;;;15.30;99.90;;;;;;4895570;29;20044;-81
2023/05/25 07:59:02;;;;;;;14.60;3.60;;;15.10;99.90;;;;;;4897117;29;20052;-82
2023/05/25 08:01:27;;;;;;;12.85;3.53;;;15.10;99.90;;;;;;4891615;29;20053;-81
2023/05/25 08:03:53;;;;;;;13.88;3.40;;;15.90;99.90;;;;;;4878713;29;20064;-80
2023/05/25 08:06:19;;;;;;;16.73;3.80;;;15.40;99.90;;;;;;4878030;29;20095;-81
2023/05/25 08:08:45;;;;;;;12.38;3.95;;;15.40;99.90;;;;;;4877929;29;20044;-81
2023/05/25 08:11:11;;;;;;;15.85;3.53;;;15.40;99.90;;;;;;4878527;29;20053;-81
2023/05/25 08:13:38;;;;;;;12.32;3.55;;;15.50;99.90;;;;;;4891116;29;20048;-81
2023/05/25 08:16:04;;;;;;;14.32;3.72;;;15.40;99.90;;;;;;4896637;29;20095;-80
2023/05/25 08:18:30;;;;;;;14.38;3.70;;;15.20;99.90;;;;;;4897080;29;20076;-80
2023/05/25 08:20:56;;;;;;;13.82;4.00;;;15.50;99.90;;;;;;4897740;29;20452;-80
2023/05/25 08:23:22;;;;;;;17.23;4.53;;;15.40;99.90;;;;;;4897519;29;20052;-80
2023/05/25 08:25:47;;;;;;;16.23;4.65;;;14.80;99.90;;;;;;4895640;29;20071;-80
2023/05/25 08:28:13;;;;;;;15.60;3.42;;;14.80;99.90;;;;;;4896129;29;20040;-80
2023/05/25 08:30:39;;;;;;;15.52;3.90;;;14.70;99.90;;;;;;4893176;29;20048;-80
2023/05/25 08:33:06;;;;;;;16.58;3.80;;;14.70;99.90;;;;;;4877605;29;20084;-80
2023/05/25 08:35:31;;;;;;;17.92;4.05;;;15.20;99.90;;;;;;4877600;29;20414;-81
2023/05/25 08:37:57;;;;;;;14.20;3.70;;;14.60;99.90;;;;;;4886794;29;20048;-81
2023/05/25 08:40:27;;;;;;;16.88;3.83;;;14.70;99.90;;;;;;4895647;29;20143;-80
2023/05/25 08:42:52;;;;;;;16.77;4.80;;;14.90;99.90;;;;;;4896176;29;20066;-80
2023/05/25 08:45:18;;;;;;;12.10;3.45;;;15.00;99.90;;;;;;4881962;29;20389;-80
2023/05/25 08:47:46;;;;;;;13.43;3.65;;;15.00;99.90;;;;;;4891666;29;20049;-80
2023/05/25 08:50:13;;;;;;;13.73;3.97;;;14.90;99.90;;;;;;4897251;29;20052;-79
2023/05/25 08:52:40;;;;;;;13.00;3.60;;;15.00;99.90;;;;;;4896225;29;20055;-80
2023/05/25 08:55:08;;;;;;;13.88;3.88;;;15.60;99.90;;;;;;4895611;29;20037;-80
2023/05/25 08:57:58;;;;;;;19.83;4.10;;;15.00;99.90;;;;;;4895674;29;20140;-80
2023/05/25 09:00:33;;;;;;;17.17;4.50;;;15.00;99.90;;;;;;4896320;29;20092;-80
2023/05/25 09:03:09;;;;;;;15.02;3.80;;;15.00;99.90;;;;;;4895995;29;20044;-80
2023/05/25 09:05:35;;;;;;;14.80;4.03;;;15.50;99.90;;;;;;4895917;29;20049;-80
2023/05/25 09:08:05;;;;;;;14.55;3.78;;;14.70;99.90;;;;;;4896635;29;20378;-80
2023/05/25 09:10:33;;;;;;;21.75;4.50;;;14.70;99.90;;;;;;4895978;29;20040;-80
2023/05/25 09:12:59;;;;;;;19.63;4.78;;;14.80;99.90;;;;;;4896521;29;20059;-80
2023/05/25 09:15:25;;;;;;;17.70;4.32;;;14.60;99.90;;;;;;4896805;29;20036;-80
2023/05/25 09:17:50;;;;;;;17.52;4.28;;;14.60;99.90;;;;;;4895788;29;20045;-80
2023/05/25 09:20:18;;;;;;;13.30;4.10;;;14.70;99.90;;;;;;4896093;29;20509;-80
2023/05/25 09:22:44;;;;;;;16.88;4.15;;;14.60;99.90;;;;;;4897185;29;20392;-80
2023/05/25 09:25:11;;;;;;;18.98;4.55;;;14.60;99.90;;;;;;4896532;29;20056;-80
2023/05/25 09:27:37;;;;;;;16.15;3.88;;;14.70;99.90;;;;;;4896249;29;20127;-81
2023/05/25 09:30:07;;;;;;;16.17;4.68;;;14.80;99.90;;;;;;4896694;29;20076;-80
2023/05/25 09:32:33;;;;;;;17.98;4.05;;;14.90;99.90;;;;;;4884502;29;20413;-81
2023/05/25 09:35:09;;;;;;;22.10;4.47;;;15.00;99.90;;;;;;4877754;29;20045;-80
2023/05/25 09:37:38;;;;;;;17.25;4.20;;;15.20;99.90;;;;;;4877806;29;20045;-81
2023/05/25 09:40:05;;;;;;;15.95;4.07;;;15.50;99.90;;;;;;4889204;29;20049;-80
2023/05/25 09:42:32;;;;;;;17.90;4.25;;;15.20;99.90;;;;;;4894384;29;20049;-80
2023/05/25 09:44:58;;;;;;;18.38;4.47;;;15.20;99.90;;;;;;4895495;29;20068;-80
2023/05/25 09:47:28;;;;;;;14.88;3.70;;;15.20;99.90;;;;;;4894900;29;20127;-80
2023/05/25 09:49:55;;;;;;;16.13;3.80;;;15.20;99.90;;;;;;4894838;29;20084;-80
2023/05/25 09:52:21;;;;;;;16.35;4.53;;;15.60;99.90;;;;;;4896266;29;20056;-80
2023/05/25 09:54:50;;;;;;;15.68;3.63;;;15.80;99.90;;;;;;4897070;29;20055;-80
2023/05/25 09:57:18;;;;;;;15.38;4.03;;;16.30;99.90;;;;;;4896195;29;20045;-81
2023/05/25 09:59:44;;;;;;;15.70;3.80;;;16.80;99.90;;;;;;4900276;29;20053;-81
2023/05/25 10:02:11;;;;;;;15.40;4.50;;;17.20;99.90;;;;;;4899473;29;20047;-81
2023/05/25 10:04:37;;;;;;;21.02;4.10;;;17.10;99.90;;;;;;4898846;29;20048;-82
2023/05/25 10:07:04;;;;;;;17.67;4.30;;;17.10;99.90;;;;;;4899992;29;20052;-81
2023/05/25 10:09:30;;;;;;;19.23;4.63;;;16.80;99.90;;;;;;4898953;29;20767;-80
2023/05/25 10:12:00;;;;;;;16.65;4.40;;;16.60;99.90;;;;;;4899086;29;20044;-81
2023/05/25 10:14:27;;;;;;;18.08;4.22;;;16.50;99.90;;;;;;4899908;29;20100;-82
2023/05/25 10:16:56;;;;;;;16.10;3.97;;;16.60;99.90;;;;;;4899417;29;20108;-81
2023/05/25 10:19:31;;;;;;;18.25;4.15;;;16.80;99.90;;;;;;4898375;29;20481;-80
2023/05/25 10:22:15;;;;;;;18.10;4.97;;;16.70;99.90;;;;;;4886408;29;20514;-80
2023/05/25 10:25:18;;;;;;;20.55;4.20;;;17.00;99.90;;;;;;4883885;29;20457;-81
2023/05/25 10:27:51;;;;;;;20.15;4.25;;;16.80;99.90;;;;;;4899544;29;20048;-81
2023/05/25 10:30:17;;;;;;;16.80;4.37;;;17.10;99.90;;;;;;4894554;29;20449;-81
2023/05/25 10:32:45;;;;;;;18.40;4.85;;;17.00;99.90;;;;;;4896144;29;20297;-81
2023/05/25 10:35:12;;;;;;;15.77;4.30;;;17.30;99.90;;;;;;4899429;29;20044;-81
2023/05/25 10:37:39;;;;;;;14.55;4.32;;;17.30;99.90;;;;;;4898908;29;20063;-81
2023/05/25 10:40:07;;;;;;;19.70;4.57;;;17.60;99.90;;;;;;4898972;29;20492;-83
2023/05/25 10:42:35;;;;;;;17.15;4.53;;;17.50;99.90;;;;;;4898168;29;20053;-82
2023/05/25 10:45:02;;;;;;;15.55;3.90;;;17.60;99.90;;;;;;4897998;29;20056;-82
2023/05/25 10:47:28;;;;;;;19.20;4.45;;;17.10;99.90;;;;;;4899442;29;20052;-82
2023/05/25 10:49:56;;;;;;;19.40;4.75;;;17.10;99.90;;;;;;4899777;29;20401;-81
2023/05/25 10:52:27;;;;;;;21.83;4.88;;;17.60;99.90;;;;;;4897188;29;20196;-82
2023/05/25 10:55:04;;;;;;;15.07;4.00;;;17.90;99.80;;;;;;4898615;29;20052;-81
2023/05/25 10:57:30;;;;;;;13.85;3.80;;;18.10;99.30;;;;;;4898060;29;20064;-83
2023/05/25 11:00:07;;;;;;;18.17;4.43;;;18.50;99.40;;;;;;4898125;29;20051;-83
2023/05/25 11:02:53;;;;;;;16.48;4.32;;;18.40;98.80;;;;;;4898434;29;20056;-81
2023/05/25 11:05:25;;;;;;;15.48;4.32;;;18.20;97.40;;;;;;4889448;29;20053;-79
2023/05/25 11:08:00;;;;;;;15.88;4.20;;;18.00;99.10;;;;;;4890425;29;20566;-80
2023/05/25 11:10:48;;;;;;;17.23;4.20;;;18.10;99.20;;;;;;4886621;29;20060;-80
2023/05/25 11:13:36;;;;;;;16.05;4.57;;;18.10;98.90;;;;;;4887606;29;20056;-81
2023/05/25 11:16:13;;;;;;;13.45;4.35;;;18.10;98.20;;;;;;4889234;29;20040;-80
2023/05/25 11:18:45;;;;;;;15.40;4.07;;;18.10;97.80;;;;;;4890593;29;20068;-82
2023/05/25 11:21:17;;;;;;;15.57;4.05;;;18.40;98.00;;;;;;4891433;29;20040;-81
2023/05/25 11:24:05;;;;;;;14.65;4.57;;;18.60;98.30;;;;;;4890300;29;20080;-81
2023/05/25 11:26:34;;;;;;;15.95;4.18;;;18.50;97.50;;;;;;4879856;29;20077;-81
2023/05/25 11:29:11;;;;;;;18.75;4.28;;;18.00;97.90;;;;;;4880417;29;20044;-81
2023/05/25 11:31:38;;;;;;;17.08;4.22;;;18.20;98.10;;;;;;4894075;29;20485;-82
2023/05/25 11:34:04;;;;;;;13.10;3.53;;;18.00;97.60;;;;;;4898083;29;20474;-81
2023/05/25 11:36:32;;;;;;;15.52;4.50;;;17.60;97.90;;;;;;4898876;29;20128;-81
2023/05/25 11:39:03;;;;;;;17.60;4.25;;;18.00;98.20;;;;;;4897539;29;20477;-81
2023/05/25 11:41:30;;;;;;;16.23;4.30;;;18.40;98.10;;;;;;4896594;29;20135;-81
2023/05/25 11:44:08;;;;;;;16.60;4.10;;;18.10;98.00;;;;;;4898990;29;20076;-81
2023/05/25 11:46:34;;;;;;;18.02;4.35;;;18.10;97.70;;;;;;4897485;29;20123;-81
2023/05/25 11:49:00;;;;;;;17.90;5.20;;;18.40;98.00;;;;;;4896941;29;20552;-80
2023/05/25 11:51:28;;;;;;;18.45;4.47;;;18.40;98.00;;;;;;4897032;29;20048;-82
2023/05/25 11:53:54;;;;;;;20.05;4.60;;;18.50;98.00;;;;;;4898460;29;20582;-82
2023/05/25 11:56:21;;;;;;;17.75;4.55;;;18.60;98.10;;;;;;4896061;29;20045;-82
2023/05/25 11:58:48;;;;;;;16.20;4.03;;;18.30;98.20;;;;;;4897465;29;20136;-82
2023/05/25 12:01:22;;;;;;;19.80;4.65;;;18.60;98.20;;;;;;4898059;29;20500;-82
2023/05/25 12:04:06;;;;;;;13.65;4.10;;;19.10;97.40;;;;;;4897533;29;20493;-81
2023/05/25 12:06:41;;;;;;;15.20;4.22;;;19.00;97.20;;;;;;4897460;29;20068;-81
2023/05/25 12:09:23;;;;;;;16.98;4.30;;;18.50;97.20;;;;;;4895981;29;20045;-82
2023/05/25 12:12:04;;;;;;;14.65;4.43;;;18.50;97.40;;;;;;4897079;29;20068;-82
2023/05/25 12:14:31;;;;;;;15.13;4.15;;;18.70;96.90;;;;;;4898179;29;20061;-82
2023/05/25 12:17:20;;;;;;;16.10;4.18;;;19.00;97.30;;;;;;4896246;29;20386;-82
2023/05/25 12:19:46;;;;;;;18.08;4.57;;;18.90;97.20;;;;;;4896991;29;20047;-82
2023/05/25 12:22:31;;;;;;;18.55;4.47;;;18.70;96.70;;;;;;4896765;29;20044;-80
2023/05/25 12:24:57;;;;;;;19.13;4.43;;;18.70;96.90;;;;;;4896368;29;20049;-81
2023/05/25 12:27:22;;;;;;;17.73;4.53;;;18.70;96.80;;;;;;4897883;29;20052;-81
2023/05/25 12:29:48;;;;;;;18.00;5.00;;;18.90;96.80;;;;;;4897247;29;20044;-80
2023/05/25 12:32:32;;;;;;;18.52;4.70;;;19.00;96.50;;;;;;4896741;29;20045;-81
2023/05/25 12:35:05;;;;;;;15.32;4.50;;;19.10;96.60;;;;;;4893922;29;20354;-81
2023/05/25 12:37:32;;;;;;;15.02;4.40;;;19.30;96.60;;;;;;4877052;29;20109;-81
2023/05/25 12:39:58;;;;;;;18.60;4.20;;;19.20;96.40;;;;;;4900604;23;20143;-81
2023/05/25 12:42:25;;;;;;;16.98;4.68;;;19.30;96.40;;;;;;4896288;29;20049;-81
2023/05/25 12:44:56;;;;;;;15.82;4.20;;;19.80;96.60;;;;;;4896266;29;20056;-81
2023/05/25 12:47:23;;;;;;;16.33;4.53;;;19.50;95.90;;;;;;4885757;29;20097;-81
2023/05/25 12:49:53;;;;;;;15.85;4.38;;;19.60;95.90;;;;;;4878983;29;20459;-81
2023/05/25 12:52:39;;;;;;;17.55;4.10;;;19.80;95.40;;;;;;4878139;29;20049;-81
2023/05/25 12:55:28;;;;;;;16.42;4.55;;;20.00;96.20;;;;;;4877999;29;20049;-81
2023/05/25 12:57:58;;;;;;;13.75;4.55;;;20.40;96.10;;;;;;4878288;29;20057;-81
2023/05/25 13:00:28;;;;;;;17.90;4.70;;;20.40;95.40;;;;;;4877166;29;20140;-82